메인 페이지
METAR-TAF:

METAR-TAF

공항 :

쿠리치바, 파라나, 브라질

위도: 25-26S, 경도: 049-16W, 고도: 924m

현재 날씨관측

예보는 1 시간 8분 전, 21:00시(UTC)에 발표되었습니다.
남동5kt
온도 23°C
습도 78%
기압 1016 hPa
시정 10km 이상
고도 2000ft 상공 구름 조금

METAR: SBBI 182100Z 14005KT 9999 FEW020 23/19 Q1016

시각: 19:08 (22:08 UTC)

예보

예보는 31 시간 8분 전, 15:00시(UTC)에 발표되었습니다.
예보 대상 시간: 17일 18시부터 18일 06시까지 (UTC)
북동14kt
시정: 8000m
고도 1200ft 상공 구름 많음
고도 4000ft 상공 구름 조금, 타워링 적운.
확률 40% :
일시적
17일 18시부터 17일 21시까지 (UTC)
시정: 5000m
고도 800ft 상공 구름 많음
고도 4000ft 상공 구름 조금, 적란운.
뇌우, 비
전환 중
17일 23시부터 18일 01시까지 (UTC)
시정: 5000m
고도 1000ft 상공 구름 많음
비, 박무
전환 중
18일 04시부터 18일 06시까지 (UTC)
고도 600ft 상공 흐림

TAF: SBBI 171500Z 1718/1806 05014KT 8000 BKN012 FEW040TCU TX15/1718Z TN14/1806Z PROB40 TEMPO 1718/1721 5000 TSRA BKN008 FEW040CB BECMG 1723/1801 5000 RA BR BKN010 BECMG 1804/1806 OVC006 RMK PEN

4,000개 이상의 공항 관측 자료 및 예보 (METAR 및 TAF 보고).

지도상에서 검색 가능한 기상관측소가 노란 점과 빨간 점으로 표시되어 있습니다.

기상관측소 명을 보려면 표시 위로 마우스를 이동하세요.

날씨 관측과 예보를 보려면 클릭하세요.

지도 변경 : 확대하려면 엑스 표시가 있는 녹색 버튼, 축소하려면 빼기 표시가 있는 녹색 버튼, 다음 페이지의 지도를 보려면 녹색 화살표를 클릭하세요.


METAR-TAF: